Time;durP1;ratioP1;P1;durP2;ratioP2;P2;SDS_P1;SDS_P2;PMS_P1;PMS_P2;Temp;Humidity;BMP_temperature;BMP_pressure;BME280_temperature;BME280_humidity;BME280_pressure;Samples;Min_cycle;Max_cycle;Signal;HPM_P1;HPM_P2
2023/11/13 00:00:35;;;;;;;2.47;1.92;;;;;;;4.50;100.00;100284.31;5026479;28;20122;-84
2023/11/13 00:03:01;;;;;;;4.00;2.53;;;;;;;4.44;100.00;100283.38;5033678;28;20069;-79
2023/11/13 00:05:28;;;;;;;3.88;2.90;;;;;;;4.42;100.00;100289.41;5026896;28;20038;-77
2023/11/13 00:07:56;;;;;;;4.53;2.88;;;;;;;4.40;100.00;100281.63;5023846;28;20055;-80
2023/11/13 00:10:23;;;;;;;3.55;3.25;;;;;;;4.38;100.00;100275.56;5023862;28;20099;-80
2023/11/13 00:12:50;;;;;;;3.70;2.95;;;;;;;4.33;100.00;100261.69;5007851;28;20057;-77
2023/11/13 00:15:17;;;;;;;7.63;4.45;;;;;;;4.29;100.00;100247.84;5023641;28;20045;-81
2023/11/13 00:17:44;;;;;;;2.88;2.67;;;;;;;4.28;100.00;100253.00;5029194;28;20462;-76
2023/11/13 00:20:13;;;;;;;4.93;3.60;;;;;;;4.23;100.00;100249.50;5020622;28;20108;-78
2023/11/13 00:22:41;;;;;;;4.80;3.55;;;;;;;4.19;100.00;100243.41;5030470;28;20743;-77
2023/11/13 00:25:08;;;;;;;7.07;3.38;;;;;;;4.13;100.00;100249.41;5020868;28;20127;-77
2023/11/13 00:27:35;;;;;;;4.10;2.78;;;;;;;4.09;100.00;100238.97;5021202;28;20038;-78
2023/11/13 00:30:03;;;;;;;5.97;3.22;;;;;;;4.02;100.00;100248.41;5023921;28;20051;-77
2023/11/13 00:32:29;;;;;;;4.60;2.95;;;;;;;4.00;100.00;100260.47;5025872;28;20045;-77
2023/11/13 00:34:57;;;;;;;6.60;3.47;;;;;;;3.98;100.00;100254.41;5026819;28;20076;-79
2023/11/13 00:37:23;;;;;;;4.35;2.58;;;;;;;3.94;100.00;100266.44;5026160;28;20098;-76
2023/11/13 00:39:50;;;;;;;4.90;3.78;;;;;;;3.90;100.00;100266.41;5019807;28;20455;-76
2023/11/13 00:42:17;;;;;;;4.00;3.30;;;;;;;3.89;100.00;100265.53;5010332;28;20055;-79
2023/11/13 00:44:44;;;;;;;6.70;2.75;;;;;;;3.85;100.00;100258.56;5043146;28;20103;-77
2023/11/13 00:47:13;;;;;;;5.68;2.63;;;;;;;3.84;100.00;100262.00;5023015;28;20417;-78
2023/11/13 00:49:40;;;;;;;3.90;2.90;;;;;;;3.80;100.00;100255.91;5010765;28;20693;-77
2023/11/13 00:52:06;;;;;;;6.72;3.10;;;;;;;3.80;100.00;100248.13;5026459;28;20122;-81
2023/11/13 00:54:35;;;;;;;3.53;2.75;;;;;;;3.77;100.00;100247.25;5012177;28;20061;-79
2023/11/13 00:57:02;;;;;;;4.60;2.88;;;;;;;3.80;100.00;100242.09;5028442;28;20085;-78
2023/11/13 00:59:29;;;;;;;3.30;3.00;;;;;;;3.82;100.00;100250.78;5007402;28;20045;-77
2023/11/13 01:01:57;;;;;;;5.25;3.15;;;;;;;3.86;100.00;100262.00;5024777;28;20041;-78
2023/11/13 01:04:24;;;;;;;4.65;3.00;;;;;;;3.88;100.00;100265.50;5044431;28;20087;-76
2023/11/13 01:07:00;;;;;;;4.15;3.22;;;;;;;3.87;100.00;100281.88;5020752;28;20556;-79
2023/11/13 01:09:26;;;;;;;6.18;3.05;;;;;;;3.84;100.00;100277.53;5023701;28;20049;-80
2023/11/13 01:11:53;;;;;;;5.10;3.40;;;;;;;3.86;100.00;100281.03;5019591;28;20065;-78
2023/11/13 01:14:24;;;;;;;2.75;2.47;;;;;;;3.82;100.00;100268.91;5026348;28;20725;-81
2023/11/13 01:16:50;;;;;;;2.95;2.53;;;;;;;3.76;100.00;100266.22;5034907;28;20068;-80
2023/11/13 01:19:18;;;;;;;5.15;3.10;;;;;;;3.70;100.00;100261.81;5029906;28;20421;-78
2023/11/13 01:21:44;;;;;;;4.47;3.38;;;;;;;3.66;100.00;100264.38;5020973;28;20048;-77
2023/11/13 01:24:11;;;;;;;4.15;3.42;;;;;;;3.67;100.00;100255.75;5021192;28;20103;-77
2023/11/13 01:26:41;;;;;;;4.20;2.67;;;;;;;3.61;100.00;100253.94;5021685;28;20045;-84
2023/11/13 01:29:06;;;;;;;3.53;2.20;;;;;;;3.59;100.00;100248.75;5025552;28;20038;-78
2023/11/13 01:31:33;;;;;;;3.28;2.47;;;;;;;3.60;100.00;100252.22;5015699;28;20061;-78
2023/11/13 01:33:59;;;;;;;4.85;2.55;;;;;;;3.57;100.00;100252.16;5017080;28;20050;-77
2023/11/13 01:36:26;;;;;;;4.00;2.38;;;;;;;3.49;100.00;100259.81;5042072;28;20133;-79
2023/11/13 01:38:53;;;;;;;4.30;2.75;;;;;;;3.52;100.00;100265.06;5022904;28;20049;-79
2023/11/13 01:41:19;;;;;;;6.57;2.53;;;;;;;3.53;100.00;100251.25;5024000;28;20046;-77
2023/11/13 01:43:46;;;;;;;5.82;2.95;;;;;;;3.53;100.00;100248.66;5020740;28;20124;-79
2023/11/13 01:46:12;;;;;;;4.13;2.60;;;;;;;3.55;100.00;100246.97;5024311;28;20103;-79
2023/11/13 01:48:39;;;;;;;2.65;2.17;;;;;;;3.50;100.00;100240.88;5028116;28;20055;-82
2023/11/13 01:51:08;;;;;;;8.18;3.70;;;;;;;3.54;100.00;100236.59;5019722;28;20405;-78
2023/11/13 01:53:34;;;;;;;7.18;2.30;;;;;;;3.55;100.00;100233.19;5041778;28;20045;-78
2023/11/13 01:56:04;;;;;;;8.10;3.15;;;;;;;3.54;100.00;100239.19;5007334;28;20118;-77
2023/11/13 01:58:34;;;;;;;3.70;2.67;;;;;;;3.55;100.00;100249.56;5022048;28;20057;-80
2023/11/13 02:01:01;;;;;;;2.13;2.00;;;;;;;3.55;100.00;100256.47;5020864;28;20565;-77
2023/11/13 02:03:32;;;;;;;4.95;2.95;;;;;;;3.47;100.00;100252.03;5026576;28;20038;-80
2023/11/13 02:05:58;;;;;;;7.00;2.65;;;;;;;3.41;100.00;100251.97;5019228;28;20049;-76
2023/11/13 02:08:28;;;;;;;3.10;2.42;;;;;;;3.36;100.00;100256.19;5022678;28;20095;-79
2023/11/13 02:10:55;;;;;;;6.63;2.88;;;;;;;3.30;100.00;100235.44;5017504;28;20045;-79
2023/11/13 02:13:22;;;;;;;3.50;2.97;;;;;;;3.28;100.00;100244.88;5024140;28;20063;-80
2023/11/13 02:15:48;;;;;;;3.78;2.90;;;;;;;3.27;100.00;100243.13;5004528;28;20449;-80
2023/11/13 02:18:15;;;;;;;7.90;3.35;;;;;;;3.29;100.00;100244.03;5037451;28;20044;-82
2023/11/13 02:20:42;;;;;;;3.40;2.67;;;;;;;3.29;100.00;100249.22;5021586;28;20149;-76
2023/11/13 02:23:09;;;;;;;5.45;2.92;;;;;;;3.31;100.00;100232.88;5024051;28;20041;-77
2023/11/13 02:25:38;;;;;;;8.70;3.58;;;;;;;3.30;100.00;100231.13;5006892;28;20059;-78
2023/11/13 02:28:06;;;;;;;3.42;2.72;;;;;;;3.29;100.00;100242.31;5019088;28;20049;-80
2023/11/13 02:30:37;;;;;;;4.95;3.20;;;;;;;3.29;100.00;100223.34;5022249;28;20040;-80
2023/11/13 02:33:04;;;;;;;5.43;3.70;;;;;;;3.31;100.00;100229.38;5016904;28;20120;-78
2023/11/13 02:35:31;;;;;;;4.40;3.30;;;;;;;3.35;100.00;100226.03;5019535;28;20056;-79
2023/11/13 02:37:57;;;;;;;3.00;2.67;;;;;;;3.43;100.00;100218.38;5017309;28;20152;-80
2023/11/13 02:40:26;;;;;;;6.22;2.72;;;;;;;3.46;100.00;100208.03;5006930;28;20099;-77
2023/11/13 02:42:53;;;;;;;7.32;2.78;;;;;;;3.55;100.00;100207.31;5037061;28;20144;-80
2023/11/13 02:45:20;;;;;;;3.97;2.95;;;;;;;3.67;100.00;100201.41;5039026;28;20053;-78
2023/11/13 02:47:47;;;;;;;4.65;3.03;;;;;;;3.64;100.00;100192.72;5004730;28;20115;-79
2023/11/13 02:50:14;;;;;;;4.88;3.08;;;;;;;3.69;100.00;100194.50;5022411;28;20041;-78
2023/11/13 02:52:47;;;;;;;10.80;3.50;;;;;;;3.74;100.00;100201.50;5019462;28;20478;-77
2023/11/13 02:55:16;;;;;;;4.28;2.40;;;;;;;3.75;100.00;100184.22;5017464;28;20033;-80
2023/11/13 02:57:43;;;;;;;3.40;2.67;;;;;;;3.80;100.00;100182.56;5018962;28;20092;-82
2023/11/13 03:00:11;;;;;;;5.32;3.15;;;;;;;3.79;100.00;100189.47;5022240;28;20536;-79
2023/11/13 03:02:38;;;;;;;6.93;3.45;;;;;;;3.77;100.00;100182.53;5023002;28;20041;-77
2023/11/13 03:05:05;;;;;;;7.65;3.03;;;;;;;3.75;100.00;100179.91;4997370;28;20095;-80
2023/11/13 03:07:32;;;;;;;5.80;3.50;;;;;;;3.70;100.00;100186.75;5020602;28;20053;-77
2023/11/13 03:09:58;;;;;;;4.45;3.25;;;;;;;3.69;100.00;100189.31;4999232;28;20057;-81
2023/11/13 03:12:26;;;;;;;5.15;3.50;;;;;;;3.68;100.00;100197.94;5022865;28;20051;-82
2023/11/13 03:14:53;;;;;;;6.32;3.58;;;;;;;3.76;100.00;100204.94;5035216;28;20045;-82
2023/11/13 03:17:22;;;;;;;4.18;3.65;;;;;;;3.79;100.00;100210.19;5024519;28;20500;-75
2023/11/13 03:19:48;;;;;;;4.28;3.63;;;;;;;3.74;100.00;100205.78;5023223;28;20045;-77
2023/11/13 03:22:18;;;;;;;12.10;3.95;;;;;;;3.75;100.00;100210.97;5020766;28;20073;-79
2023/11/13 03:24:46;;;;;;;6.10;2.92;;;;;;;3.71;100.00;100216.97;5021149;28;20670;-81
2023/11/13 03:27:13;;;;;;;5.25;3.53;;;;;;;3.60;100.00;100209.09;5021907;28;20044;-76
2023/11/13 03:29:40;;;;;;;6.15;3.95;;;;;;;3.55;100.00;100210.75;5019142;28;20176;-77
2023/11/13 03:32:08;;;;;;;7.68;3.75;;;;;;;3.53;100.00;100221.94;5020198;28;20410;-82
2023/11/13 03:34:34;;;;;;;4.63;3.50;;;;;;;3.41;100.00;100223.50;5031510;28;20037;-80
2023/11/13 03:37:01;;;;;;;6.10;3.55;;;;;;;3.41;100.00;100218.31;5025867;28;20041;-80
2023/11/13 03:39:28;;;;;;;6.20;3.70;;;;;;;3.44;100.00;100218.38;5026557;28;20053;-77
2023/11/13 03:41:56;;;;;;;8.25;3.70;;;;;;;3.41;100.00;100222.63;5021791;28;20095;-78
2023/11/13 03:44:23;;;;;;;7.00;3.85;;;;;;;3.41;100.00;100226.09;5022855;28;20037;-78
2023/11/13 03:46:51;;;;;;;11.27;4.93;;;;;;;3.31;100.00;100232.88;5036194;28;20678;-77
2023/11/13 03:49:18;;;;;;;5.50;4.22;;;;;;;3.29;100.00;100220.75;5016138;28;20525;-77
2023/11/13 03:51:45;;;;;;;6.68;4.13;;;;;;;3.32;100.00;100223.38;5013219;28;20046;-83
2023/11/13 03:54:12;;;;;;;8.27;4.15;;;;;;;3.28;100.00;100221.59;5020378;28;20045;-80
2023/11/13 03:56:40;;;;;;;9.40;4.20;;;;;;;3.22;100.00;100212.03;5014007;28;20037;-76
2023/11/13 03:59:07;;;;;;;7.32;4.22;;;;;;;3.23;100.00;100207.72;5026130;28;20029;-76
2023/11/13 04:01:33;;;;;;;6.93;3.90;;;;;;;3.18;100.00;100199.03;5004355;28;20052;-76
2023/11/13 04:04:00;;;;;;;6.75;4.10;;;;;;;3.18;100.00;100202.50;5020748;28;20052;-79
2023/11/13 04:06:27;;;;;;;4.70;3.55;;;;;;;3.14;100.00;100201.59;5019782;28;20145;-78
2023/11/13 04:08:53;;;;;;;11.02;4.80;;;;;;;3.13;100.00;100201.56;5020736;28;20120;-79
2023/11/13 04:11:20;;;;;;;7.78;3.55;;;;;;;3.10;100.00;100214.44;5024251;28;20413;-76
2023/11/13 04:13:46;;;;;;;8.25;3.70;;;;;;;3.12;100.00;100216.19;5017960;28;20077;-79
2023/11/13 04:16:14;;;;;;;10.48;4.80;;;;;;;3.12;100.00;100223.09;5013364;28;20208;-78
2023/11/13 04:18:41;;;;;;;6.13;4.57;;;;;;;3.19;100.00;100224.91;5003292;28;20545;-79
2023/11/13 04:21:07;;;;;;;7.40;4.85;;;;;;;3.20;100.00;100226.66;5022328;28;20485;-80
2023/11/13 04:23:34;;;;;;;7.97;4.18;;;;;;;3.14;100.00;100217.09;5003850;28;20131;-80
2023/11/13 04:26:00;;;;;;;7.00;4.90;;;;;;;3.09;100.00;100215.28;5020272;28;20126;-78
2023/11/13 04:28:30;;;;;;;7.13;4.10;;;;;;;3.04;100.00;100204.88;5023156;28;20041;-78
2023/11/13 04:30:57;;;;;;;5.80;3.85;;;;;;;3.01;100.00;100206.56;5022476;28;20041;-78
2023/11/13 04:33:24;;;;;;;9.15;4.88;;;;;;;2.98;100.00;100194.44;5018560;28;20743;-78
2023/11/13 04:35:50;;;;;;;10.48;4.75;;;;;;;2.95;100.00;100189.25;4997192;28;20808;-78
2023/11/13 04:38:17;;;;;;;7.00;4.82;;;;;;;2.88;100.00;100190.00;5037295;28;20041;-76
2023/11/13 04:40:45;;;;;;;7.68;4.40;;;;;;;2.90;100.00;100178.81;5021373;28;20564;-81
2023/11/13 04:43:13;;;;;;;6.72;4.85;;;;;;;2.91;100.00;100177.13;5021234;28;20046;-78
2023/11/13 04:45:41;;;;;;;10.88;4.13;;;;;;;2.95;100.00;100168.56;5028939;28;20049;-79
2023/11/13 04:48:07;;;;;;;7.78;4.47;;;;;;;2.96;100.00;100175.47;5021475;28;20049;-78
2023/11/13 04:50:34;;;;;;;9.98;5.80;;;;;;;2.93;100.00;100178.88;5022206;28;20045;-78
2023/11/13 04:53:02;;;;;;;7.60;4.18;;;;;;;2.92;100.00;100182.31;5018859;28;20037;-78
2023/11/13 04:55:30;;;;;;;11.00;4.93;;;;;;;2.98;100.00;100172.03;5003963;28;20047;-81
2023/11/13 04:57:57;;;;;;;7.07;4.95;;;;;;;3.02;100.00;100179.84;5021152;28;20128;-79
2023/11/13 05:00:23;;;;;;;11.90;5.85;;;;;;;3.07;100.00;100193.72;5022755;28;20041;-78
2023/11/13 05:02:50;;;;;;;5.50;4.55;;;;;;;3.13;100.00;100197.25;5025664;28;20049;-75
2023/11/13 05:05:17;;;;;;;13.20;4.57;;;;;;;3.16;100.00;100204.19;5026540;28;20042;-80
2023/11/13 05:07:43;;;;;;;4.82;4.05;;;;;;;3.16;100.00;100206.78;5041862;28;20054;-76
2023/11/13 05:10:11;;;;;;;7.55;4.72;;;;;;;3.19;100.00;100211.13;5016800;28;20041;-77
2023/11/13 05:12:38;;;;;;;9.90;4.63;;;;;;;3.22;100.00;100208.56;5008888;28;20176;-78
2023/11/13 05:15:05;;;;;;;7.28;4.72;;;;;;;3.25;100.00;100212.06;5026890;28;20033;-79
2023/11/13 05:17:36;;;;;;;10.82;5.55;;;;;;;3.20;100.00;100199.94;5003981;28;20049;-77
2023/11/13 05:20:04;;;;;;;9.88;4.68;;;;;;;3.20;100.00;100200.78;5024943;28;20057;-77
2023/11/13 05:22:32;;;;;;;8.43;5.13;;;;;;;3.21;100.00;100199.09;5026672;28;20048;-76
2023/11/13 05:24:59;;;;;;;5.22;4.05;;;;;;;3.23;100.00;100200.81;5023862;28;20119;-79
2023/11/13 05:27:31;;;;;;;9.27;4.97;;;;;;;3.24;100.00;100192.22;5008426;28;20056;-80
2023/11/13 05:29:57;;;;;;;7.00;4.75;;;;;;;3.26;100.00;100189.66;5019289;28;20046;-76
2023/11/13 05:32:26;;;;;;;9.27;4.45;;;;;;;3.21;100.00;100184.44;5010040;28;20049;-80
2023/11/13 05:34:53;;;;;;;9.18;5.22;;;;;;;3.20;100.00;100192.19;5007586;28;20671;-79
2023/11/13 05:37:19;;;;;;;9.98;5.13;;;;;;;3.22;100.00;100182.72;5008659;28;20469;-77
2023/11/13 05:39:46;;;;;;;11.27;6.05;;;;;;;3.17;100.00;100181.78;5017713;28;20048;-78
2023/11/13 05:42:16;;;;;;;11.40;6.28;;;;;;;3.20;100.00;100174.06;5023138;28;20056;-81
2023/11/13 05:44:43;;;;;;;13.52;5.85;;;;;;;3.21;100.00;100166.31;5023530;28;20183;-79
2023/11/13 05:47:13;;;;;;;8.48;5.13;;;;;;;3.23;100.00;100167.19;5006347;28;20046;-79
2023/11/13 05:49:39;;;;;;;9.35;5.18;;;;;;;3.24;100.00;100158.59;5023328;28;20043;-78
2023/11/13 05:52:06;;;;;;;9.52;4.60;;;;;;;3.24;100.00;100150.84;5007724;28;20723;-78
2023/11/13 05:54:33;;;;;;;11.43;6.32;;;;;;;3.26;100.00;100146.56;5017331;28;20049;-78
2023/11/13 05:57:00;;;;;;;10.70;6.13;;;;;;;3.24;100.00;100137.03;5033948;28;20041;-79
2023/11/13 05:59:26;;;;;;;11.00;5.05;;;;;;;3.26;100.00;100131.03;5022754;28;20060;-79
2023/11/13 06:01:54;;;;;;;6.55;4.38;;;;;;;3.28;100.00;100128.47;5016707;28;20054;-82
2023/11/13 06:04:21;;;;;;;8.98;5.72;;;;;;;3.28;100.00;100116.38;5004319;28;20042;-76
2023/11/13 06:06:48;;;;;;;13.15;6.40;;;;;;;3.27;100.00;100121.56;5017016;28;20046;-76
2023/11/13 06:09:15;;;;;;;9.23;5.05;;;;;;;3.32;100.00;100112.13;5021723;28;20512;-82
2023/11/13 06:11:42;;;;;;;11.70;6.03;;;;;;;3.37;100.00;100113.06;5021339;28;21227;-77
2023/11/13 06:14:09;;;;;;;9.30;5.65;;;;;;;3.39;100.00;100120.81;5022541;28;20154;-77
2023/11/13 06:16:36;;;;;;;10.80;5.22;;;;;;;3.41;100.00;100114.81;5038408;28;20038;-80
2023/11/13 06:19:06;;;;;;;8.90;5.82;;;;;;;3.43;100.00;100110.53;5024963;28;20378;-79
2023/11/13 06:21:33;;;;;;;11.50;4.78;;;;;;;3.45;100.00;100115.72;5025239;28;20053;-81
2023/11/13 06:24:00;;;;;;;11.23;6.00;;;;;;;3.54;100.00;100115.81;5025575;28;20855;-77
2023/11/13 06:26:26;;;;;;;13.98;5.57;;;;;;;3.55;100.00;100115.00;5005899;28;20148;-80
2023/11/13 06:28:53;;;;;;;8.00;5.50;;;;;;;3.60;100.00;100109.88;5022866;28;20804;-78
2023/11/13 06:31:22;;;;;;;9.15;5.60;;;;;;;3.60;100.00;100120.22;5025140;28;20530;-79
2023/11/13 06:33:49;;;;;;;10.52;5.70;;;;;;;3.56;100.00;100119.31;5022189;28;20041;-76
2023/11/13 06:36:16;;;;;;;10.00;4.75;;;;;;;3.56;100.00;100124.50;5020330;28;20045;-78
2023/11/13 06:38:43;;;;;;;9.18;6.10;;;;;;;3.56;100.00;100110.66;5001629;28;20053;-78
2023/11/13 06:41:09;;;;;;;13.77;5.60;;;;;;;3.56;100.00;100103.78;5020455;28;20049;-77
2023/11/13 06:43:36;;;;;;;7.88;5.93;;;;;;;3.58;100.00;100098.63;5020983;28;20041;-78
2023/11/13 06:46:03;;;;;;;12.98;6.82;;;;;;;3.54;100.00;100097.72;5023918;28;20089;-78
2023/11/13 06:48:30;;;;;;;14.73;7.13;;;;;;;3.54;100.00;100089.94;5023551;28;20049;-82
2023/11/13 06:50:57;;;;;;;10.63;6.22;;;;;;;3.56;100.00;100098.63;5025778;28;20041;-79
2023/11/13 06:53:25;;;;;;;10.55;5.43;;;;;;;3.57;100.00;100097.78;5025046;28;20069;-79
2023/11/13 06:55:53;;;;;;;11.05;6.68;;;;;;;3.58;100.00;100094.31;5016791;28;20046;-81
2023/11/13 06:58:22;;;;;;;11.73;6.30;;;;;;;3.59;100.00;100087.44;5036994;28;20129;-78
2023/11/13 07:00:51;;;;;;;9.65;6.50;;;;;;;3.67;100.00;100085.78;5019237;28;20206;-80
2023/11/13 07:03:18;;;;;;;10.02;6.97;;;;;;;3.71;100.00;100081.50;5011480;28;20114;-81
2023/11/13 07:05:47;;;;;;;8.55;6.22;;;;;;;3.71;100.00;100082.34;5002236;28;20068;-78
2023/11/13 07:08:13;;;;;;;8.68;6.25;;;;;;;3.78;100.00;100073.81;5019502;28;20101;-77
2023/11/13 07:10:42;;;;;;;17.20;7.82;;;;;;;3.80;100.00;100068.63;5038003;28;20049;-77
2023/11/13 07:13:11;;;;;;;13.95;8.00;;;;;;;3.77;100.00;100063.44;5017055;28;20041;-80
2023/11/13 07:15:39;;;;;;;9.70;6.55;;;;;;;3.82;100.00;100059.19;5020334;28;20064;-77
2023/11/13 07:18:09;;;;;;;15.32;6.55;;;;;;;3.86;100.00;100062.63;5021608;28;20124;-77
2023/11/13 07:20:36;;;;;;;10.13;6.50;;;;;;;3.86;100.00;100055.75;5020909;28;20061;-81
2023/11/13 07:23:04;;;;;;;10.80;6.50;;;;;;;3.90;100.00;100048.91;5003488;28;20523;-78
2023/11/13 07:25:30;;;;;;;12.50;6.35;;;;;;;3.92;100.00;100050.59;5021245;28;20630;-76
2023/11/13 07:27:57;;;;;;;10.50;6.38;;;;;;;3.94;100.00;100055.81;5035281;28;20153;-79
2023/11/13 07:30:26;;;;;;;14.13;8.80;;;;;;;3.95;100.00;100060.13;5039272;28;20049;-77
2023/11/13 07:32:53;;;;;;;14.75;7.57;;;;;;;3.98;100.00;100066.22;5022545;28;20739;-77
2023/11/13 07:35:21;;;;;;;14.23;6.63;;;;;;;4.01;100.00;100073.13;5024555;28;20477;-79
2023/11/13 07:37:47;;;;;;;12.65;6.25;;;;;;;4.03;100.00;100076.63;5037346;28;20065;-80
2023/11/13 07:40:14;;;;;;;10.60;6.18;;;;;;;4.08;100.00;100082.72;5037316;28;20076;-79
2023/11/13 07:42:43;;;;;;;8.80;5.95;;;;;;;4.17;100.00;100083.63;5017673;28;20124;-78
2023/11/13 07:45:13;;;;;;;12.73;7.75;;;;;;;4.26;100.00;100088.88;5023204;28;20049;-77
2023/11/13 07:47:40;;;;;;;10.40;5.88;;;;;;;4.30;100.00;100081.16;5019392;28;20046;-78
2023/11/13 07:50:11;;;;;;;10.43;5.65;;;;;;;4.32;100.00;100080.31;5018224;28;20089;-79
2023/11/13 07:52:45;;;;;;;11.32;6.35;;;;;;;4.38;100.00;100072.53;5021552;28;20969;-82
2023/11/13 07:55:13;;;;;;;;;;;;;;;4.38;100.00;100064.78;5040240;28;20523;-76
2023/11/13 07:57:40;;;;;;;10.23;5.38;;;;;;;4.39;100.00;100063.91;5020955;28;19935;-77
2023/11/13 08:00:09;;;;;;;7.97;5.30;;;;;;;4.45;100.00;100067.41;5026881;28;20076;-78
2023/11/13 08:02:42;;;;;;;10.82;6.55;;;;;;;4.56;100.00;100066.63;5023037;28;20044;-77
2023/11/13 08:05:11;;;;;;;14.55;7.15;;;;;;;4.62;100.00;100056.31;5024075;28;20117;-79
2023/11/13 08:07:43;;;;;;;9.40;5.55;;;;;;;4.64;100.00;100058.03;5027768;28;20072;-79
2023/11/13 08:10:13;;;;;;;9.95;5.75;;;;;;;4.74;100.00;100052.91;5012235;28;20106;-79
2023/11/13 08:12:49;;;;;;;10.30;5.68;;;;;;;4.84;100.00;100039.13;5031944;28;20060;-80
2023/11/13 08:15:16;;;;;;;9.48;6.22;;;;;;;4.89;100.00;100024.44;5009041;28;20057;-81
2023/11/13 08:17:44;;;;;;;10.35;5.85;;;;;;;4.94;100.00;100027.03;5012420;28;20115;-76
2023/11/13 08:20:14;;;;;;;12.68;6.13;;;;;;;5.04;100.00;100013.25;5025247;28;20117;-77
2023/11/13 08:22:46;;;;;;;9.18;6.20;;;;;;;5.13;100.00;100002.03;5009782;28;20470;-79
2023/11/13 08:25:12;;;;;;;12.23;6.45;;;;;;;5.25;100.00;100004.69;5033395;28;20057;-78
2023/11/13 08:27:43;;;;;;;10.85;6.60;;;;;;;5.37;100.00;99996.06;5020781;28;20056;-76
2023/11/13 08:30:13;;;;;;;12.63;6.10;;;;;;;5.45;100.00;99993.47;5027201;28;20709;-79
2023/11/13 08:32:40;;;;;;;11.93;7.07;;;;;;;5.46;100.00;99987.41;5025335;28;20044;-78
2023/11/13 08:35:11;;;;;;;10.75;6.22;;;;;;;5.48;100.00;99977.91;5026684;28;20044;-80
2023/11/13 08:37:45;;;;;;;11.52;7.05;;;;;;;5.46;100.00;99975.31;5025202;28;20033;-77
2023/11/13 08:40:14;;;;;;;13.07;6.47;;;;;;;5.51;100.00;99977.88;5038341;28;20116;-77
2023/11/13 08:42:47;;;;;;;12.93;7.25;;;;;;;5.58;100.00;99970.97;4990630;28;20060;-79
2023/11/13 08:45:17;;;;;;;13.67;6.80;;;;;;;5.66;100.00;99976.16;5024092;28;20480;-81
2023/11/13 08:47:49;;;;;;;10.50;6.90;;;;;;;5.79;100.00;99963.19;5031894;28;20042;-79
2023/11/13 08:50:17;;;;;;;16.20;8.93;;;;;;;5.92;100.00;99958.84;5025261;28;20041;-78
2023/11/13 08:52:47;;;;;;;13.18;7.22;;;;;;;5.93;100.00;99960.59;5023192;28;20041;-77
2023/11/13 08:55:17;;;;;;;16.38;9.15;;;;;;;5.83;100.00;99955.38;5022250;28;20543;-76
2023/11/13 08:57:49;;;;;;;12.65;7.03;;;;;;;5.92;100.00;99963.19;5007776;28;20136;-76
2023/11/13 09:00:21;;;;;;;13.75;7.63;;;;;;;5.96;100.00;99963.16;5008236;28;20104;-81
2023/11/13 09:02:54;;;;;;;20.17;9.45;;;;;;;5.91;100.00;99938.94;5024645;28;20086;-81
2023/11/13 09:05:26;;;;;;;11.40;7.33;;;;;;;5.97;100.00;99943.22;5023548;28;20041;-77
2023/11/13 09:07:57;;;;;;;10.90;7.50;;;;;;;6.00;100.00;99947.59;5025339;28;20088;-78
2023/11/13 09:10:26;;;;;;;13.57;8.45;;;;;;;6.09;100.00;99932.88;5021761;28;20050;-80
2023/11/13 09:12:58;;;;;;;14.50;8.18;;;;;;;6.14;100.00;99919.88;5020667;28;20525;-77
2023/11/13 09:15:28;;;;;;;13.98;7.70;;;;;;;6.14;100.00;99914.69;5026164;28;20118;-80
2023/11/13 09:18:01;;;;;;;15.43;8.70;;;;;;;6.27;100.00;99910.28;5020623;28;20051;-77
2023/11/13 09:20:29;;;;;;;12.93;7.43;;;;;;;6.32;100.00;99907.69;5018572;28;20053;-78
2023/11/13 09:23:00;;;;;;;14.70;7.38;;;;;;;6.46;100.00;99908.50;5029676;28;20648;-81
2023/11/13 09:25:28;;;;;;;13.93;8.07;;;;;;;6.48;100.00;99892.88;5000370;28;20049;-78
2023/11/13 09:27:58;;;;;;;10.65;6.95;;;;;;;6.51;100.00;99882.47;5025938;28;20103;-80
2023/11/13 09:30:25;;;;;;;14.57;7.90;;;;;;;6.41;100.00;99884.25;5025145;28;20038;-80
2023/11/13 09:32:53;;;;;;;10.88;7.50;;;;;;;6.29;100.00;99877.38;5009625;28;20753;-80
2023/11/13 09:35:23;;;;;;;11.18;7.95;;;;;;;6.41;100.00;99889.44;5023181;28;20078;-80
2023/11/13 09:37:51;;;;;;;10.77;7.05;;;;;;;6.51;100.00;99885.09;5006939;28;20581;-78
2023/11/13 09:40:22;;;;;;;12.55;7.93;;;;;;;6.77;100.00;99888.41;5019707;28;21388;-79
2023/11/13 09:43:12;;;;;;;10.35;6.97;;;;;;;7.15;100.00;99882.97;5007769;28;20068;-77
2023/11/13 09:45:55;;;;;;;15.13;7.47;;;;;;;7.39;99.66;99884.50;5035212;28;20167;-79
2023/11/13 09:48:29;;;;;;;11.27;7.40;;;;;;;7.36;98.76;99884.53;5006290;28;20379;-76
2023/11/13 09:50:57;;;;;;;;;;;;;;;7.33;98.87;99884.56;5026841;28;20884;-80
2023/11/13 09:53:26;;;;;;;10.98;7.30;;;;;;;7.21;99.53;99883.78;5025525;28;20008;-77
2023/11/13 09:55:54;;;;;;;10.57;7.63;;;;;;;7.09;100.00;99883.84;5027566;28;20102;-76
2023/11/13 09:58:22;;;;;;;12.02;6.82;;;;;;;7.06;100.00;99882.13;5023558;28;20463;-82
2023/11/13 10:00:50;;;;;;;12.98;7.22;;;;;;;7.05;100.00;99882.16;5023118;28;20049;-78
2023/11/13 10:03:18;;;;;;;11.27;6.22;;;;;;;7.03;100.00;99889.97;5007234;28;20045;-79
2023/11/13 10:05:45;;;;;;;11.07;7.03;;;;;;;7.00;100.00;99889.13;5017869;28;20037;-78
2023/11/13 10:08:14;;;;;;;10.88;6.47;;;;;;;6.96;100.00;99880.47;5011369;28;20045;-76
2023/11/13 10:10:45;;;;;;;8.32;6.78;;;;;;;6.93;100.00;99870.94;5006260;28;20053;-78
2023/11/13 10:13:17;;;;;;;11.95;6.25;;;;;;;6.84;100.00;99862.34;5024097;28;20057;-79
2023/11/13 10:15:44;;;;;;;7.13;6.18;;;;;;;6.83;100.00;99864.09;5005680;28;20049;-76
2023/11/13 10:18:14;;;;;;;8.30;5.50;;;;;;;6.72;100.00;99855.50;5021098;28;20045;-77
2023/11/13 10:20:49;;;;;;;10.02;6.80;;;;;;;6.58;100.00;99856.44;5026186;28;20126;-80
2023/11/13 10:23:19;;;;;;;8.88;6.80;;;;;;;6.33;100.00;99860.03;5004879;28;20053;-80
2023/11/13 10:25:53;;;;;;;9.50;7.43;;;;;;;6.43;100.00;99862.56;5019267;28;20107;-78
2023/11/13 10:28:24;;;;;;;10.18;7.78;;;;;;;6.29;100.00;99864.38;5021962;28;20749;-78
2023/11/13 10:31:00;;;;;;;11.13;7.35;;;;;;;6.15;100.00;99854.00;5028424;28;20046;-79
2023/11/13 10:33:28;;;;;;;8.18;6.22;;;;;;;6.14;100.00;99841.91;5021576;28;20053;-83
2023/11/13 10:36:04;;;;;;;9.55;6.68;;;;;;;6.15;100.00;99842.78;5002916;28;20053;-79
2023/11/13 10:38:46;;;;;;;8.70;6.18;;;;;;;6.11;100.00;99844.50;5019385;28;20129;-79
2023/11/13 10:41:14;;;;;;;15.93;7.38;;;;;;;6.11;100.00;99837.59;5034969;28;20071;-78
2023/11/13 10:43:41;;;;;;;11.85;6.75;;;;;;;6.20;100.00;99835.81;5006500;28;20045;-79
2023/11/13 10:46:09;;;;;;;10.13;6.82;;;;;;;6.11;100.00;99839.31;5012218;28;20446;-78
2023/11/13 10:48:45;;;;;;;8.07;6.53;;;;;;;6.12;100.00;99839.31;5000612;28;20056;-81
2023/11/13 10:51:14;;;;;;;12.25;6.60;;;;;;;6.12;100.00;99834.09;5023263;28;20123;-79
2023/11/13 10:53:42;;;;;;;11.02;6.55;;;;;;;6.13;100.00;99822.84;5034898;28;20456;-77
2023/11/13 10:56:10;;;;;;;9.65;6.05;;;;;;;6.19;100.00;99810.69;5024899;28;20109;-76
2023/11/13 10:58:37;;;;;;;10.27;6.63;;;;;;;6.21;100.00;99801.16;5003205;28;20427;-80
2023/11/13 11:01:08;;;;;;;9.18;5.85;;;;;;;6.23;100.00;99796.81;5025799;28;20042;-77
2023/11/13 11:03:44;;;;;;;9.25;6.97;;;;;;;6.26;100.00;99782.06;5009984;28;20052;-77
2023/11/13 11:06:19;;;;;;;8.75;5.75;;;;;;;6.30;100.00;99772.53;5026007;28;20080;-78
2023/11/13 11:08:48;;;;;;;7.95;5.70;;;;;;;6.28;100.00;99758.66;5016683;28;20087;-77
2023/11/13 11:11:15;;;;;;;9.25;5.80;;;;;;;6.28;100.00;99748.28;5015872;28;20049;-79
2023/11/13 11:13:56;;;;;;;9.68;6.07;;;;;;;6.34;100.00;99747.38;5021761;28;20049;-78
2023/11/13 11:16:44;;;;;;;8.93;5.82;;;;;;;6.36;100.00;99748.22;5015089;28;20052;-78
2023/11/13 11:19:39;;;;;;;10.18;6.50;;;;;;;6.40;100.00;99740.41;5018168;28;20041;-79
2023/11/13 11:22:14;;;;;;;9.02;6.30;;;;;;;6.42;100.00;99725.66;5021482;28;20045;-78
2023/11/13 11:25:16;;;;;;;11.05;7.07;;;;;;;6.38;100.00;99729.16;5017384;28;20067;-77
2023/11/13 11:27:45;;;;;;;9.85;6.50;;;;;;;6.42;100.00;99730.84;5039115;28;20045;-78
2023/11/13 11:30:18;;;;;;;10.57;6.18;;;;;;;6.38;100.00;99721.34;5026299;28;20045;-80